Latest Weather Observations for Mardie

IDW60801

Issued at 7:05 am WST Wednesday 26 November 2014 (issued every 30 minutes, with the page automatically refreshed every 10 minutes)

About weather observations | Map of weather stations | Latest weather observations for WA | Other Formats
Station Details ID: 005008 Name: MARDIE Lat: -21.19 Lon: 115.98 Height: 11.0 m
Data from the previous 72 hours. | See also: Recent months at Mardie
Date/Time
WST
Temp
°C
App
Temp
°C
Dew
Point
Rel
Hum
%
Delta-T
°C
Wind Press
QNH
hPa
Press
MSL
hPa
Rain
since 9 am
mm
Dir
 
Spd
km/h
Gust
km/h
Spd
kts
Gust
kts
26/07:00am 26.7 31.2 21.5 73 3.5 CALM 0 0 0 0 1009.9 1009.9 0.0
26/06:30am 25.4 30.1 21.9 81 2.3 CALM 0 0 0 0 1009.9 1009.9 0.0
26/06:00am 24.3 28.5 21.8 86 1.7 SE 2 4 1 2 1009.7 1009.7 0.0
26/05:30am 24.1 28.0 21.2 84 1.9 SE 2 4 1 2 1009.3 1009.3 0.0
26/05:00am 24.4 28.5 21.5 84 1.9 SE 2 4 1 2 1009.0 1009.0 0.0
26/04:30am 24.6 28.5 21.9 85 1.8 SE 4 4 2 2 1008.9 1008.9 0.0
26/04:00am 24.5 27.6 22.2 87 1.5 SE 9 11 5 6 1008.9 1008.9 0.0
26/03:30am 24.4 27.8 22.7 90 1.1 SSE 9 13 5 7 1009.0 1009.0 0.0
26/03:00am 24.4 27.8 22.7 90 1.1 SW 9 15 5 8 1008.4 1008.4 0.0
26/02:30am 24.5 27.2 22.8 90 1.1 SW 13 17 7 9 1008.2 1008.2 0.0
26/02:00am 24.6 27.3 22.8 90 1.2 SW 13 19 7 10 1008.1 1008.1 0.0
26/01:30am 24.6 27.8 23.0 91 1.1 WSW 11 13 6 7 1008.1 1008.1 0.0
26/01:00am 24.6 28.0 22.7 89 1.3 WSW 9 15 5 8 1008.1 1008.1 0.0
26/12:30am 24.6 27.9 22.5 88 1.4 WSW 9 13 5 7 1008.4 1008.4 0.0
26/12:00am 24.9 28.5 22.4 86 1.7 W 7 11 4 6 1008.7 1008.7 0.0
 
Date/Time
WST
Temp
°C
App
Temp
°C
Dew
Point
Rel
Hum
%
Delta-T
°C
Wind Press
QNH
hPa
Press
MSL
hPa
Rain
since 9 am
mm
Dir
 
Spd
km/h
Gust
km/h
Spd
kts
Gust
kts
25/11:30pm 25.1 27.6 22.4 85 1.8 W 13 19 7 10 1008.9 1008.9 0.0
25/11:00pm 25.4 27.3 22.1 82 2.2 W 15 20 8 11 1008.8 1008.8 0.0
25/10:30pm 25.5 27.5 22.2 82 2.2 W 15 20 8 11 1008.9 1008.9 0.0
25/10:00pm 25.6 27.5 22.1 81 2.3 W 15 24 8 13 1008.6 1008.6 0.0
25/09:30pm 25.8 27.4 22.1 80 2.5 W 17 22 9 12 1008.5 1008.5 0.0
25/09:00pm 26.0 27.7 21.7 77 2.9 W 15 22 8 12 1008.3 1008.3 0.0
25/08:30pm 26.1 27.4 21.7 77 2.9 W 17 24 9 13 1008.0 1008.0 0.0
25/08:00pm 26.4 28.1 21.6 75 3.2 W 15 24 8 13 1007.7 1007.7 0.0
25/07:30pm 26.7 27.7 21.0 71 3.8 W 17 24 9 13 1007.5 1007.5 0.0
25/07:00pm 27.0 27.1 21.1 70 3.9 WNW 22 33 12 18 1007.0 1007.0 0.0
25/06:30pm 27.7 28.1 21.0 67 4.4 WNW 20 32 11 17 1006.7 1006.7 0.0
25/06:00pm 28.1 27.7 20.9 65 4.8 WNW 24 32 13 17 1006.5 1006.5 0.0
25/05:30pm 29.3 27.6 19.9 57 6.2 W 28 39 15 21 1006.3 1006.3 0.0
25/05:00pm 31.0 29.1 19.4 50 7.6 W 28 33 15 18 1005.8 1005.8 0.0
25/04:30pm 32.0 30.1 18.6 45 8.7 W 26 33 14 18 1005.7 1005.7 0.0
25/04:00pm 32.7 30.2 18.1 42 9.5 W 28 37 15 20 1005.7 1005.7 0.0
25/03:30pm 33.8 31.6 17.9 38 10.3 WNW 26 35 14 19 1005.8 1005.8 0.0
25/03:00pm 33.9 31.1 17.2 37 10.7 W 28 35 15 19 1006.2 1006.2 0.0
25/02:30pm 34.8 31.7 16.6 33 11.6 W 28 35 15 19 1006.3 1006.3 0.0
25/02:00pm 36.1 33.5 16.8 32 12.4 W 26 33 14 18 1006.3 1006.3 0.0
25/01:30pm 36.7 34.3 16.3 30 13.0 WNW 24 30 13 16 1006.8 1006.8 0.0
25/01:00pm 35.6 33.8 17.8 35 11.6 WNW 24 30 13 16 1007.1 1007.1 0.0
25/12:30pm 35.4 33.5 16.7 33 11.9 WNW 22 30 12 16 1007.5 1007.5 0.0
25/12:00pm 36.0 34.3 16.2 31 12.6 WNW 20 26 11 14 1008.1 1008.1 0.0
25/11:30am 35.9 34.3 16.1 30 12.6 WNW 19 24 10 13 1008.5 1008.5 0.0
25/11:00am 36.2 35.1 15.3 28 13.1 W 15 24 8 13 1008.8 1008.8 0.0
25/10:30am 36.0 33.4 9.5 20 15.3 WSW 13 22 7 12 1009.1 1009.1 0.0
25/10:00am 35.6 32.8 9.9 21 14.9 SW 15 22 8 12 1009.4 1009.4 0.0
25/09:30am 33.7 31.2 10.9 25 13.3 S 15 22 8 12 1009.5 1009.5 0.0
25/09:00am 32.8 30.7 11.3 27 12.6 SSW 13 20 7 11 1009.7 1009.7 0.0
25/08:30am 30.6 29.5 13.0 34 10.5 SSW 11 17 6 9 1009.9 1009.9 0.0
25/08:00am 28.5 27.6 13.6 40 8.9 SSW 11 19 6 10 1009.8 1009.8 0.0
25/07:30am 27.2 26.8 15.2 47 7.3 SW 11 17 6 9 1009.6 1009.6 0.0
25/07:00am 25.7 25.3 16.3 56 5.8 SW 13 19 7 10 1009.6 1009.6 0.0
25/06:30am 24.5 24.5 17.2 63 4.5 WSW 13 17 7 9 1009.5 1009.5 0.0
25/06:00am 22.9 23.9 16.9 69 3.7 WSW 7 13 4 7 1009.5 1009.5 0.0
25/05:30am 21.9 22.8 16.6 72 3.2 WSW 7 11 4 6 1009.2 1009.2 0.0
25/05:00am 21.8 22.7 16.7 73 3.1 WSW 7 9 4 5 1009.1 1009.1 0.0
25/04:30am 22.3 23.4 17.0 72 3.2 WSW 7 7 4 4 1009.0 1009.0 0.0
25/04:00am 23.0 23.9 17.5 71 3.4 WSW 9 11 5 6 1009.0 1009.0 0.0
25/03:30am 23.4 24.5 18.1 72 3.3 WSW 9 13 5 7 1009.1 1009.1 0.0
25/03:00am 23.5 25.0 18.8 75 3.0 WSW 9 11 5 6 1009.0 1009.0 0.0
25/02:30am 23.9 25.8 19.8 78 2.6 SW 9 13 5 7 1009.1 1009.1 0.0
25/02:00am 24.2 26.4 20.5 80 2.4 WSW 9 13 5 7 1009.1 1009.1 0.0
25/01:30am 23.8 26.0 19.3 76 2.9 WSW 6 7 3 4 1009.3 1009.3 0.0
25/01:00am 24.2 26.3 19.3 74 3.1 WSW 7 11 4 6 1009.5 1009.5 0.0
25/12:30am 24.1 26.1 19.2 74 3.1 WSW 7 11 4 6 1009.6 1009.6 0.0
25/12:00am 24.5 26.2 19.3 73 3.3 WSW 9 13 5 7 1009.9 1009.9 0.0
 
Date/Time
WST
Temp
°C
App
Temp
°C
Dew
Point
Rel
Hum
%
Delta-T
°C
Wind Press
QNH
hPa
Press
MSL
hPa
Rain
since 9 am
mm
Dir
 
Spd
km/h
Gust
km/h
Spd
kts
Gust
kts
24/11:30pm 24.7 26.5 19.5 73 3.3 WSW 9 13 5 7 1010.0 1010.0 0.0
24/11:00pm 24.9 26.8 19.7 73 3.4 WSW 9 13 5 7 1010.2 1010.2 0.0
24/10:30pm 25.1 26.8 20.1 74 3.2 W 11 17 6 9 1010.3 1010.3 0.0
24/10:00pm 25.3 26.3 20.3 74 3.3 WSW 15 19 8 10 1010.3 1010.3 0.0
24/09:30pm 25.6 26.6 20.2 72 3.5 W 15 20 8 11 1010.2 1010.2 0.0
24/09:00pm 25.9 26.7 19.8 69 4.0 W 15 20 8 11 1010.0 1010.0 0.0
24/08:30pm 26.3 27.4 19.7 67 4.3 W 13 20 7 11 1009.7 1009.7 0.0
24/08:00pm 26.4 27.2 19.8 67 4.3 WSW 15 20 8 11 1009.4 1009.4 0.0
24/07:30pm 26.6 27.1 20.0 67 4.3 W 17 20 9 11 1009.1 1009.1 0.0
24/07:00pm 27.1 27.0 20.0 65 4.6 W 20 28 11 15 1008.7 1008.7 0.0
24/06:30pm 28.1 27.2 18.2 55 6.3 W 20 32 11 17 1008.4 1008.4 0.0
24/06:00pm 28.8 26.6 17.0 49 7.4 W 24 32 13 17 1008.0 1008.0 0.0
24/05:30pm 29.7 27.2 17.2 47 7.9 WNW 26 33 14 18 1007.7 1007.7 0.0
24/05:00pm 30.7 27.3 15.9 40 9.2 WNW 28 35 15 19 1007.6 1007.6 0.0
24/04:30pm 31.2 28.2 16.8 42 9.1 WNW 28 35 15 19 1007.5 1007.5 0.0
24/04:00pm 31.8 28.1 16.9 40 9.5 WNW 32 37 17 20 1007.4 1007.4 0.0
24/03:30pm 32.4 28.5 15.4 36 10.6 WNW 30 37 16 20 1007.5 1007.5 0.0
24/03:00pm 34.1 30.1 15.1 32 11.8 WNW 30 35 16 19 1007.7 1007.7 0.0
24/02:30pm 33.7 30.0 16.1 34 11.1 WNW 30 37 16 20 1008.0 1008.0 0.0
24/02:00pm 33.6 30.1 16.5 36 10.8 WNW 30 37 16 20 1008.2 1008.2 0.0
24/01:30pm 34.2 30.9 16.1 34 11.4 WNW 28 32 15 17 1008.6 1008.6 0.0
24/01:00pm 34.2 31.7 16.1 34 11.4 WNW 24 32 13 17 1008.8 1008.8 0.0
24/12:30pm 34.0 31.5 17.2 36 10.8 WNW 26 33 14 18 1009.1 1009.1 0.0
24/12:00pm 33.7 31.7 17.4 37 10.5 WNW 24 30 13 16 1009.5 1009.5 0.0
24/11:30am 32.7 31.0 17.3 39 9.8 WNW 22 28 12 15 1009.8 1009.8 0.0
24/11:00am 32.0 30.8 17.1 41 9.5 WNW 19 24 10 13 1010.2 1010.2 0.0
24/10:30am 30.9 30.0 16.9 43 8.8 WNW 17 26 9 14 1010.5 1010.5 0.0
24/10:00am 30.8 30.1 16.4 42 9.0 WNW 15 24 8 13 1010.8 1010.8 0.0
24/09:30am 30.2 29.2 15.5 41 9.1 WNW 15 20 8 11 1011.0 1011.0 0.0
24/09:00am 31.4 30.1 11.2 29 11.7 W 9 15 5 8 1011.0 1011.0 0.0
24/08:30am 30.3 29.0 11.3 31 11.0 WSW 9 13 5 7 1010.8 1010.8 0.0
24/08:00am 28.7 27.5 11.7 35 9.8 SW 9 13 5 7 1010.8 1010.8 0.0
24/07:30am 27.1 25.9 12.7 41 8.4 SW 11 17 6 9 1010.7 1010.7 0.0
24/07:00am 24.9 23.7 12.8 47 7.0 WSW 11 17 6 9 1010.6 1010.6 0.0
24/06:30am 24.3 22.7 12.9 49 6.6 SW 13 19 7 10 1010.3 1010.3 0.0
24/06:00am 22.8 22.1 13.3 55 5.5 SW 9 13 5 7 1010.1 1010.1 0.0
24/05:30am 22.1 21.5 13.5 58 5.0 WSW 9 13 5 7 1010.0 1010.0 0.0
24/05:00am 21.6 21.1 13.8 61 4.5 WSW 9 11 5 6 1009.8 1009.8 0.0
24/04:30am 21.9 21.8 13.8 60 4.7 WSW 7 11 4 6 1009.8 1009.8 0.0
24/04:00am 22.0 21.9 13.9 60 4.7 WSW 7 9 4 5 1009.8 1009.8 0.0
24/03:30am 22.3 22.5 14.2 60 4.7 SW 6 7 3 4 1009.7 1009.7 0.0
24/03:00am 23.0 23.0 14.3 58 5.1 SW 7 9 4 5 1009.5 1009.5 0.0
24/02:30am 23.4 23.2 14.7 58 5.2 SW 9 11 5 6 1009.6 1009.6 0.0
24/02:00am 23.9 24.2 14.9 57 5.4 SW 7 11 4 6 1009.6 1009.6 0.0
24/01:30am 24.4 24.4 15.1 56 5.6 WSW 9 15 5 8 1009.7 1009.7 0.0
24/01:00am 24.8 23.9 14.9 54 5.9 WSW 13 17 7 9 1010.0 1010.0 0.0
24/12:30am 25.2 24.5 15.5 55 5.9 WSW 13 17 7 9 1010.2 1010.2 0.0
24/12:00am 25.4 25.1 16.5 58 5.5 WSW 13 17 7 9 1010.4 1010.4 0.0
 
Date/Time
WST
Temp
°C
App
Temp
°C
Dew
Point
Rel
Hum
%
Delta-T
°C
Wind Press
QNH
hPa
Press
MSL
hPa
Rain
since 9 am
mm
Dir
 
Spd
km/h
Gust
km/h
Spd
kts
Gust
kts
23/11:30pm 25.8 26.0 17.7 61 5.1 WSW 13 17 7 9 1010.6 1010.6 0.0
23/11:00pm 25.9 26.9 18.6 64 4.7 WSW 11 17 6 9 1010.7 1010.7 0.0
23/10:30pm 26.1 26.5 19.0 65 4.6 WSW 15 20 8 11 1010.8 1010.8 0.0
23/10:00pm 26.2 26.9 19.6 67 4.3 WSW 15 19 8 10 1010.7 1010.7 0.0
23/09:30pm 26.1 27.5 19.5 67 4.3 W 11 15 6 8 1010.6 1010.6 0.0
23/09:00pm 26.3 27.9 19.2 65 4.6 W 9 13 5 7 1010.6 1010.6 0.0
23/08:30pm 26.5 26.7 18.6 62 5.0 W 15 19 8 10 1010.5 1010.5 0.0
23/08:00pm 26.7 27.4 18.0 59 5.5 W 11 19 6 10 1010.3 1010.3 0.0
23/07:30pm 27.0 26.5 17.8 57 5.8 W 17 28 9 15 1010.0 1010.0 0.0
23/07:00pm 27.5 26.4 17.4 54 6.4 W 19 24 10 13 1009.5 1009.5 0.0
23/06:30pm 28.1 26.3 16.1 48 7.4 W 20 28 11 15 1009.3 1009.3 0.0
23/06:00pm 28.7 25.2 15.6 45 8.1 W 28 37 15 20 1008.9 1008.9 0.0
23/05:30pm 29.2 26.3 17.1 48 7.6 W 28 39 15 21 1008.8 1008.8 0.0
23/05:00pm 31.1 27.2 15.5 39 9.7 W 30 37 16 20 1008.6 1008.6 0.0
23/04:30pm 31.7 27.8 14.4 35 10.6 W 28 39 15 21 1008.4 1008.4 0.0
23/04:00pm 32.0 28.5 15.5 37 10.3 W 28 37 15 20 1008.3 1008.3 0.0
23/03:30pm 31.9 28.5 15.8 38 10.0 W 28 37 15 20 1008.3 1008.3 0.0
23/03:00pm 32.7 28.3 12.9 30 11.9 W 28 37 15 20 1008.6 1008.6 0.0
23/02:30pm 34.4 30.1 13.3 28 12.8 WNW 28 33 15 18 1008.6 1008.6 0.0
23/02:00pm 34.3 28.6 6.6 18 15.2 W 26 33 14 18 1008.8 1008.8 0.0
23/01:30pm 34.8 29.9 9.9 22 14.4 WNW 26 35 14 19 1008.9 1008.9 0.0
23/01:00pm 33.9 29.8 12.8 28 12.7 WNW 26 35 14 19 1009.1 1009.1 0.0
23/12:30pm 33.3 29.6 13.9 31 11.8 WNW 26 33 14 18 1009.4 1009.4 0.0
23/12:00pm 33.4 29.9 14.5 32 11.6 WNW 26 35 14 19 1009.7 1009.7 0.0
23/11:30am 33.3 30.5 14.4 32 11.6 WNW 22 30 12 16 1010.0 1010.0 0.0
23/11:00am 33.4 31.1 14.0 31 11.9 WNW 19 30 10 16 1010.2 1010.2 0.0
23/10:30am 33.1 31.4 13.7 31 11.8 WNW 15 22 8 12 1010.5 1010.5 0.0
23/10:00am 33.5 31.3 10.8 25 13.2 WSW 13 22 7 12 1010.6 1010.6 0.0
23/09:30am 32.0 30.7 11.2 28 12.1 SSW 9 15 5 8 1010.7 1010.7 0.0
23/09:00am 30.7 29.1 11.6 31 11.1 SW 11 19 6 10 1010.8 1010.8 0.0
23/08:30am 29.5 27.7 12.0 34 10.2 SSW 13 20 7 11 1010.8 1010.8 0.0
23/08:00am 27.6 25.4 12.0 38 9.0 SSW 15 20 8 11 1010.8 1010.8 0.0
23/07:30am 26.5 23.7 12.5 41 8.1 SSW 19 26 10 14 1010.6 1010.6 0.0

Other Formats:

Comma delimited format used in spreadsheet applications
http://www.bom.gov.au/fwo/IDW60801/IDW60801.94306.axf

JavaScript Object Notation format (JSON) in row-major order
http://www.bom.gov.au/fwo/IDW60801/IDW60801.94306.json